createdAt,value
2016-08-13T00:00:30.300Z,1012.07
2016-08-13T00:01:29.733Z,1012.07
2016-08-13T00:02:29.996Z,1012.03
2016-08-13T00:03:29.867Z,1012.04
2016-08-13T00:04:29.921Z,1012.06
2016-08-13T00:05:29.844Z,1012.05
2016-08-13T00:06:29.896Z,1012.03
2016-08-13T00:07:30.401Z,1012.06
2016-08-13T00:08:30.029Z,1012.01
2016-08-13T00:09:30.099Z,1012.08
2016-08-13T00:10:29.932Z,1012.07
2016-08-13T00:11:29.900Z,1012.08
2016-08-13T00:12:30.092Z,1012.09
2016-08-13T00:13:30.361Z,1012.07
2016-08-13T00:14:30.378Z,1012.02
2016-08-13T00:15:30.354Z,1011.97
2016-08-13T00:16:30.086Z,1011.95
2016-08-13T00:17:30.543Z,1011.98
2016-08-13T00:18:30.324Z,1011.99
2016-08-13T00:19:30.165Z,1011.94
2016-08-13T00:20:30.275Z,1011.98
2016-08-13T00:21:30.291Z,1011.98
2016-08-13T00:22:30.475Z,1012
2016-08-13T00:23:30.374Z,1011.96
2016-08-13T00:24:30.384Z,1011.98
2016-08-13T00:25:30.291Z,1011.95
2016-08-13T00:26:30.439Z,1012
2016-08-13T00:27:30.522Z,1012.01
2016-08-13T00:28:30.667Z,1011.97
2016-08-13T00:29:30.612Z,1012
2016-08-13T00:30:30.974Z,1012
2016-08-13T00:31:30.834Z,1011.99
2016-08-13T00:32:30.572Z,1012
2016-08-13T00:33:30.833Z,1012.01
2016-08-13T00:34:30.743Z,1011.95
2016-08-13T00:35:30.596Z,1012.01
2016-08-13T00:36:30.634Z,1011.98
2016-08-13T00:37:30.763Z,1011.97
2016-08-13T00:38:30.862Z,1011.96
2016-08-13T00:39:30.850Z,1011.95
2016-08-13T00:40:30.759Z,1011.95
2016-08-13T00:41:30.845Z,1011.98
2016-08-13T00:42:30.961Z,1011.98
2016-08-13T00:43:31.087Z,1012
2016-08-13T00:44:31.295Z,1011.97
2016-08-13T00:45:30.993Z,1011.99
2016-08-13T00:46:30.945Z,1012.03
2016-08-13T00:47:31.111Z,1012.03
2016-08-13T00:48:30.834Z,1012
2016-08-13T00:49:30.907Z,1011.99
2016-08-13T00:50:31.062Z,1011.94
2016-08-13T00:51:31.354Z,1011.97
2016-08-13T00:52:31.203Z,1011.92
2016-08-13T00:53:31.122Z,1011.89
2016-08-13T00:54:31.112Z,1011.92
2016-08-13T00:55:31.255Z,1011.9
2016-08-13T00:56:31.293Z,1011.9
2016-08-13T00:57:31.286Z,1011.93
2016-08-13T00:58:31.209Z,1011.93
2016-08-13T00:59:31.394Z,1011.92
2016-08-13T01:00:31.308Z,1011.91
2016-08-13T01:01:31.699Z,1011.93
2016-08-13T01:02:31.404Z,1011.94
2016-08-13T01:03:31.655Z,1011.94
2016-08-13T01:04:31.407Z,1011.9
2016-08-13T01:05:31.304Z,1011.89
2016-08-13T01:06:31.763Z,1011.92
2016-08-13T01:07:31.343Z,1011.91
2016-08-13T01:08:31.601Z,1011.85
2016-08-13T01:09:31.729Z,1011.85
2016-08-13T01:10:31.579Z,1011.84
2016-08-13T01:11:31.585Z,1011.85
2016-08-13T01:12:31.745Z,1011.83
2016-08-13T01:13:31.742Z,1011.83
2016-08-13T01:14:31.922Z,1011.84
2016-08-13T01:15:31.642Z,1011.84
2016-08-13T01:16:31.661Z,1011.81
2016-08-13T01:17:31.757Z,1011.79
2016-08-13T01:18:31.497Z,1011.76
2016-08-13T01:19:31.728Z,1011.74
2016-08-13T01:20:31.761Z,1011.77
2016-08-13T01:21:31.673Z,1011.76
2016-08-13T01:22:31.899Z,1011.74
2016-08-13T01:23:32.080Z,1011.77
2016-08-13T01:24:31.988Z,1011.72
2016-08-13T01:25:31.874Z,1011.73
2016-08-13T01:26:32.096Z,1011.72
2016-08-13T01:27:31.832Z,1011.7
2016-08-13T01:28:31.868Z,1011.65
2016-08-13T01:29:32.006Z,1011.69
2016-08-13T01:30:32.172Z,1011.62
2016-08-13T01:31:32.007Z,1011.66
2016-08-13T01:32:32.001Z,1011.67
2016-08-13T01:33:32.075Z,1011.62
2016-08-13T01:34:32.539Z,1011.59
2016-08-13T01:35:32.085Z,1011.61
2016-08-13T01:36:32.198Z,1011.62
2016-08-13T01:37:32.329Z,1011.63
2016-08-13T01:38:32.313Z,1011.62
2016-08-13T01:39:32.342Z,1011.58
2016-08-13T01:40:32.460Z,1011.58
2016-08-13T01:41:32.362Z,1011.61
2016-08-13T01:42:32.408Z,1011.58
2016-08-13T01:43:32.315Z,1011.64
2016-08-13T01:44:32.379Z,1011.61
2016-08-13T01:45:32.502Z,1011.59
2016-08-13T01:46:32.473Z,1011.63
2016-08-13T01:47:32.413Z,1011.6
2016-08-13T01:48:32.438Z,1011.54
2016-08-13T01:49:32.304Z,1011.55
2016-08-13T01:50:32.370Z,1011.49
2016-08-13T01:51:32.640Z,1011.52
2016-08-13T01:52:32.817Z,1011.52
2016-08-13T01:53:32.691Z,1011.48
2016-08-13T01:54:32.552Z,1011.45
2016-08-13T01:55:32.596Z,1011.46
2016-08-13T01:56:32.714Z,1011.44
2016-08-13T01:57:32.746Z,1011.43
2016-08-13T01:58:33.013Z,1011.46
2016-08-13T01:59:32.807Z,1011.44
2016-08-13T02:00:32.832Z,1011.45
2016-08-13T02:01:32.637Z,1011.45
2016-08-13T02:02:33.031Z,1011.47
2016-08-13T02:03:32.967Z,1011.42
2016-08-13T02:04:32.860Z,1011.39
2016-08-13T02:05:32.848Z,1011.37
2016-08-13T02:06:33.006Z,1011.36
2016-08-13T02:07:32.701Z,1011.31
2016-08-13T02:08:32.874Z,1011.38
2016-08-13T02:09:32.835Z,1011.32
2016-08-13T02:10:33.161Z,1011.34
2016-08-13T02:11:32.827Z,1011.3
2016-08-13T02:12:33.029Z,1011.3
2016-08-13T02:13:33.990Z,1011.29
2016-08-13T02:14:32.891Z,1011.3
2016-08-13T02:15:32.981Z,1011.33
2016-08-13T02:16:33.797Z,1011.29
2016-08-13T02:17:33.235Z,1011.28
2016-08-13T02:18:32.999Z,1011.23
2016-08-13T02:19:33.000Z,1011.27
2016-08-13T02:20:33.468Z,1011.25
2016-08-13T02:21:33.476Z,1011.27
2016-08-13T02:22:33.118Z,1011.25
2016-08-13T02:23:33.771Z,1011.27
2016-08-13T02:24:33.256Z,1011.26
2016-08-13T02:25:33.830Z,1011.25
2016-08-13T02:26:33.368Z,1011.21
2016-08-13T02:27:33.775Z,1011.17
2016-08-13T02:28:33.961Z,1011.19
2016-08-13T02:29:33.334Z,1011.15
2016-08-13T02:30:34.113Z,1011.2
2016-08-13T02:31:33.290Z,1011.13
2016-08-13T02:32:33.656Z,1011.15
2016-08-13T02:33:33.955Z,1011.16
2016-08-13T02:34:33.908Z,1011.17
2016-08-13T02:35:33.605Z,1011.16
2016-08-13T02:36:33.464Z,1011.15
2016-08-13T02:37:33.510Z,1011.09
2016-08-13T02:38:33.738Z,1011.08
2016-08-13T02:39:33.916Z,1011.04
2016-08-13T02:40:33.792Z,1011.03
2016-08-13T02:41:33.739Z,1011.07
2016-08-13T02:42:34.231Z,1011.08
2016-08-13T02:43:33.762Z,1011.07
2016-08-13T02:44:34.259Z,1011.03
2016-08-13T02:45:33.812Z,1011.12
2016-08-13T02:46:34.171Z,1011.1
2016-08-13T02:47:34.055Z,1011.1
2016-08-13T02:48:33.975Z,1011.08
2016-08-13T02:49:34.006Z,1011.1
2016-08-13T02:50:34.018Z,1011.06
2016-08-13T02:51:34.690Z,1011.06
2016-08-13T02:52:34.111Z,1011.08
2016-08-13T02:53:34.179Z,1011.05
2016-08-13T02:54:33.931Z,1011.06
2016-08-13T02:55:34.087Z,1011.11
2016-08-13T02:56:34.380Z,1011.06
2016-08-13T02:57:34.333Z,1011.11
2016-08-13T02:58:34.455Z,1011.14
2016-08-13T02:59:34.513Z,1011.11
2016-08-13T03:00:34.272Z,1011.13
2016-08-13T03:01:34.315Z,1011.09
2016-08-13T03:02:34.447Z,1011.13
2016-08-13T03:03:35.079Z,1011.12
2016-08-13T03:04:34.244Z,1011.08
2016-08-13T03:05:34.243Z,1011.09
2016-08-13T03:06:34.200Z,1011.09
2016-08-13T03:07:34.276Z,1011.1
2016-08-13T03:08:34.226Z,1011.1
2016-08-13T03:09:34.343Z,1011.1
2016-08-13T03:10:34.618Z,1011.11
2016-08-13T03:11:34.362Z,1011.11
2016-08-13T03:12:34.916Z,1011.17
2016-08-13T03:13:34.684Z,1011.19
2016-08-13T03:14:34.577Z,1011.15
2016-08-13T03:15:34.379Z,1011.17
2016-08-13T03:16:34.462Z,1011.19
2016-08-13T03:17:34.386Z,1011.24
2016-08-13T03:18:34.615Z,1011.23
2016-08-13T03:19:34.774Z,1011.18
2016-08-13T03:20:34.558Z,1011.2
2016-08-13T03:21:35.139Z,1011.19
2016-08-13T03:22:34.809Z,1011.19
2016-08-13T03:23:34.508Z,1011.19
2016-08-13T03:24:34.605Z,1011.18
2016-08-13T03:25:34.505Z,1011.17
2016-08-13T03:26:34.631Z,1011.13
2016-08-13T03:27:34.827Z,1011.11
2016-08-13T03:28:35.055Z,1011.13
2016-08-13T03:29:35.049Z,1011.08
2016-08-13T03:30:34.964Z,1011.04
2016-08-13T03:31:34.875Z,1011.05
2016-08-13T03:32:35.158Z,1011.02
2016-08-13T03:33:34.876Z,1011.03
2016-08-13T03:34:34.950Z,1011.04
2016-08-13T03:35:34.923Z,1011.06
2016-08-13T03:36:34.996Z,1011.02
2016-08-13T03:37:35.033Z,1011.03
2016-08-13T03:38:35.189Z,1011.06
2016-08-13T03:39:35.813Z,1011.06
2016-08-13T03:40:35.009Z,1011.01
2016-08-13T03:41:35.097Z,1011.03
2016-08-13T03:42:34.991Z,1011.02
2016-08-13T03:43:35.195Z,1011.01
2016-08-13T03:44:35.116Z,1011.06
2016-08-13T03:45:35.182Z,1011.05
2016-08-13T03:46:35.362Z,1011.02
2016-08-13T03:47:35.103Z,1011
2016-08-13T03:48:35.521Z,1011
2016-08-13T03:49:35.208Z,1010.98
2016-08-13T03:50:35.584Z,1011
2016-08-13T03:51:35.472Z,1010.97
2016-08-13T03:52:35.170Z,1010.98
2016-08-13T03:53:35.169Z,1010.97
2016-08-13T03:54:35.405Z,1011.01
2016-08-13T03:55:35.430Z,1010.94
2016-08-13T03:56:35.560Z,1010.93
2016-08-13T03:57:35.460Z,1010.93
2016-08-13T03:58:35.533Z,1010.94
2016-08-13T03:59:35.547Z,1010.94
2016-08-13T04:00:35.740Z,1010.94
2016-08-13T04:01:35.633Z,1010.96
2016-08-13T04:02:35.551Z,1010.98
2016-08-13T04:03:35.842Z,1011.02
2016-08-13T04:04:35.647Z,1011.04
2016-08-13T04:05:35.815Z,1010.99
2016-08-13T04:06:36.156Z,1010.98
2016-08-13T04:07:36.097Z,1011.07
2016-08-13T04:08:35.805Z,1011.05
2016-08-13T04:09:35.564Z,1011.08
2016-08-13T04:10:35.854Z,1011.1
2016-08-13T04:11:35.832Z,1011.04
2016-08-13T04:12:36.280Z,1011.01
2016-08-13T04:13:35.804Z,1011.05
2016-08-13T04:14:35.985Z,1011.1
2016-08-13T04:15:36.009Z,1011.13
2016-08-13T04:16:35.967Z,1011.15
2016-08-13T04:17:35.965Z,1011.15
2016-08-13T04:18:35.943Z,1011.1
2016-08-13T04:19:35.910Z,1011.11
2016-08-13T04:20:36.005Z,1011.1
2016-08-13T04:21:35.872Z,1011.11
2016-08-13T04:22:35.939Z,1011.09
2016-08-13T04:23:35.921Z,1011.09
2016-08-13T04:24:36.075Z,1011.09
2016-08-13T04:25:36.244Z,1011.09
2016-08-13T04:26:36.068Z,1011.11
2016-08-13T04:27:36.017Z,1011.12
2016-08-13T04:28:36.449Z,1011.09
2016-08-13T04:29:36.194Z,1011.11
2016-08-13T04:30:36.385Z,1011.1
2016-08-13T04:31:36.448Z,1011.06
2016-08-13T04:32:36.352Z,1011.07
2016-08-13T04:33:36.375Z,1011.07
2016-08-13T04:34:36.373Z,1011.1
2016-08-13T04:35:36.381Z,1011.02
2016-08-13T04:36:36.554Z,1011.08
2016-08-13T04:37:36.492Z,1011.11
2016-08-13T04:38:36.331Z,1011.11
2016-08-13T04:39:36.580Z,1011.12
2016-08-13T04:40:36.586Z,1011.05
2016-08-13T04:41:36.357Z,1011.09
2016-08-13T04:42:36.418Z,1011.1
2016-08-13T04:43:36.672Z,1011.07
2016-08-13T04:44:36.522Z,1011.05
2016-08-13T04:45:36.547Z,1011.06
2016-08-13T04:46:36.676Z,1011.06
2016-08-13T04:47:36.779Z,1011.06
2016-08-13T04:48:36.585Z,1011.07
2016-08-13T04:49:36.570Z,1011.03
2016-08-13T04:50:36.661Z,1011.04
2016-08-13T04:51:36.737Z,1011.04
2016-08-13T04:52:36.719Z,1011.08
2016-08-13T04:53:37.006Z,1011.1
2016-08-13T04:54:36.814Z,1011.09
2016-08-13T04:55:36.888Z,1011.1
2016-08-13T04:56:36.930Z,1011.1
2016-08-13T04:57:36.857Z,1011.11
2016-08-13T04:58:36.976Z,1011.11
2016-08-13T04:59:36.708Z,1011.14
2016-08-13T05:00:36.915Z,1011.07
2016-08-13T05:01:36.746Z,1011.07
2016-08-13T05:02:37.216Z,1011.06
2016-08-13T05:03:37.019Z,1011.04
2016-08-13T05:04:37.154Z,1011.03
2016-08-13T05:05:37.090Z,1011.02
2016-08-13T05:06:36.897Z,1011.03
2016-08-13T05:07:36.926Z,1011.03
2016-08-13T05:08:37.066Z,1011.05
2016-08-13T05:09:37.259Z,1011.09
2016-08-13T05:10:37.034Z,1011.04
2016-08-13T05:11:37.236Z,1011.11
2016-08-13T05:12:37.278Z,1011.08
2016-08-13T05:13:37.126Z,1011.02
2016-08-13T05:14:37.202Z,1011.07
2016-08-13T05:15:37.558Z,1011.04
2016-08-13T05:16:37.195Z,1011.11
2016-08-13T05:17:37.339Z,1011.09
2016-08-13T05:18:37.326Z,1011.07
2016-08-13T05:19:37.771Z,1011.06
2016-08-13T05:20:37.235Z,1011.06
2016-08-13T05:21:37.749Z,1011.08
2016-08-13T05:22:37.445Z,1011.06
2016-08-13T05:23:37.509Z,1011.04
2016-08-13T05:24:37.299Z,1011.15
2016-08-13T05:25:38.022Z,1011.12
2016-08-13T05:26:37.555Z,1011.15
2016-08-13T05:27:37.805Z,1011.13
2016-08-13T05:28:37.605Z,1011.07
2016-08-13T05:29:37.814Z,1011.05
2016-08-13T05:30:37.887Z,1011.08
2016-08-13T05:31:37.666Z,1011.1
2016-08-13T05:32:37.633Z,1011.1
2016-08-13T05:33:37.595Z,1011.06
2016-08-13T05:34:37.797Z,1011.08
2016-08-13T05:35:37.901Z,1011.06
2016-08-13T05:36:37.785Z,1011.08
2016-08-13T05:37:37.994Z,1011.07
2016-08-13T05:38:38.164Z,1011.11
2016-08-13T05:39:37.921Z,1011.11
2016-08-13T05:40:37.732Z,1011.07
2016-08-13T05:41:38.203Z,1011.12
2016-08-13T05:42:38.216Z,1011.11
2016-08-13T05:43:38.369Z,1011.08
2016-08-13T05:44:37.861Z,1011.08
2016-08-13T05:45:37.873Z,1011.06
2016-08-13T05:46:37.843Z,1011.06
2016-08-13T05:47:38.064Z,1011.05
2016-08-13T05:48:38.007Z,1011.04
2016-08-13T05:49:38.720Z,1011.03
2016-08-13T05:50:37.977Z,1011.01
2016-08-13T05:51:37.930Z,1010.98
2016-08-13T05:52:38.084Z,1010.95
2016-08-13T05:53:38.229Z,1010.96
2016-08-13T05:54:38.517Z,1010.95
2016-08-13T05:55:38.312Z,1010.89
2016-08-13T05:56:38.468Z,1010.91
2016-08-13T05:57:38.199Z,1010.9
2016-08-13T05:58:38.209Z,1010.89
2016-08-13T05:59:38.133Z,1010.87
2016-08-13T06:00:38.941Z,1010.88
2016-08-13T06:01:38.282Z,1010.9
2016-08-13T06:02:38.394Z,1010.89
2016-08-13T06:03:38.522Z,1010.93
2016-08-13T06:04:38.257Z,1010.93
2016-08-13T06:05:38.539Z,1010.98
2016-08-13T06:06:38.688Z,1010.91
2016-08-13T06:07:38.569Z,1010.92
2016-08-13T06:08:38.500Z,1010.95
2016-08-13T06:09:38.584Z,1011.01
2016-08-13T06:10:38.793Z,1010.99
2016-08-13T06:11:38.475Z,1010.98
2016-08-13T06:12:38.549Z,1010.97
2016-08-13T06:13:38.741Z,1010.95
2016-08-13T06:14:38.668Z,1010.98
2016-08-13T06:15:38.582Z,1010.94
2016-08-13T06:16:38.526Z,1010.98
2016-08-13T06:17:38.552Z,1010.95
2016-08-13T06:18:38.885Z,1010.96
2016-08-13T06:19:38.875Z,1010.93
2016-08-13T06:20:38.678Z,1010.91
2016-08-13T06:21:39.125Z,1010.92
2016-08-13T06:22:39.029Z,1010.93
2016-08-13T06:23:39.063Z,1010.94
2016-08-13T06:24:39.115Z,1010.92
2016-08-13T06:25:39.420Z,1010.9
2016-08-13T06:26:39.513Z,1010.93
2016-08-13T06:27:38.800Z,1010.93
2016-08-13T06:28:38.996Z,1010.91
2016-08-13T06:29:39.194Z,1010.96
2016-08-13T06:30:38.942Z,1010.99
2016-08-13T06:31:39.454Z,1010.97
2016-08-13T06:32:39.053Z,1011.01
2016-08-13T06:33:39.074Z,1010.97
2016-08-13T06:34:39.135Z,1010.97
2016-08-13T06:35:39.332Z,1010.94
2016-08-13T06:36:39.128Z,1010.98
2016-08-13T06:37:39.537Z,1010.96
2016-08-13T06:38:39.320Z,1010.99
2016-08-13T06:39:39.273Z,1010.91
2016-08-13T06:40:39.338Z,1010.96
2016-08-13T06:41:39.107Z,1010.96
2016-08-13T06:42:39.511Z,1010.97
2016-08-13T06:43:39.451Z,1010.98
2016-08-13T06:44:39.520Z,1011
2016-08-13T06:45:39.615Z,1011.01
2016-08-13T06:46:39.451Z,1011
2016-08-13T06:47:39.276Z,1011
2016-08-13T06:48:39.604Z,1011.01
2016-08-13T06:49:39.431Z,1011.06
2016-08-13T06:50:39.541Z,1011.02
2016-08-13T06:51:39.723Z,1011.04
2016-08-13T06:52:39.549Z,1011.01
2016-08-13T06:53:39.498Z,1011.01
2016-08-13T06:54:39.499Z,1011.03
2016-08-13T06:55:39.724Z,1010.97
2016-08-13T06:56:39.927Z,1010.94
2016-08-13T06:57:39.968Z,1010.95
2016-08-13T06:58:39.813Z,1010.97
2016-08-13T06:59:39.773Z,1010.96
2016-08-13T07:00:39.853Z,1010.97
2016-08-13T07:01:39.823Z,1010.96
2016-08-13T07:02:39.834Z,1010.91
2016-08-13T07:03:40.081Z,1010.97
2016-08-13T07:04:40.143Z,1010.89
2016-08-13T07:05:40.436Z,1010.92
2016-08-13T07:06:40.294Z,1010.92
2016-08-13T07:07:39.905Z,1011
2016-08-13T07:08:40.250Z,1011.03
2016-08-13T07:09:39.958Z,1011.08
2016-08-13T07:10:40.745Z,1011.11
2016-08-13T07:11:39.973Z,1011.06
2016-08-13T07:12:40.251Z,1011.1
2016-08-13T07:13:40.024Z,1011.07
2016-08-13T07:14:40.082Z,1010.97
2016-08-13T07:15:39.970Z,1011.11
2016-08-13T07:16:40.197Z,1011.03
2016-08-13T07:17:40.067Z,1010.99
2016-08-13T07:18:40.072Z,1010.86
2016-08-13T07:19:40.358Z,1011.04
2016-08-13T07:20:40.486Z,1011.03
2016-08-13T07:21:40.334Z,1011.05
2016-08-13T07:22:40.526Z,1011.08
2016-08-13T07:23:40.409Z,1011.05
2016-08-13T07:24:40.412Z,1010.91
2016-08-13T07:25:40.260Z,1011.14
2016-08-13T07:26:40.604Z,1011.14
2016-08-13T07:27:40.637Z,1011.08
2016-08-13T07:28:40.608Z,1011.08
2016-08-13T07:29:40.509Z,1011.08
2016-08-13T07:30:40.742Z,1011.11
2016-08-13T07:31:40.699Z,1011.09
2016-08-13T07:32:40.800Z,1011.09
2016-08-13T07:33:40.699Z,1011.13
2016-08-13T07:34:40.720Z,1011.13
2016-08-13T07:35:40.753Z,1011.16
2016-08-13T07:36:40.957Z,1011.16
2016-08-13T07:37:40.871Z,1011.1
2016-08-13T07:38:40.643Z,1011.12
2016-08-13T07:39:40.946Z,1011.13
2016-08-13T07:40:40.861Z,1011.12
2016-08-13T07:41:40.773Z,1011.09
2016-08-13T07:42:40.868Z,1011.08
2016-08-13T07:43:40.778Z,1011.02
2016-08-13T07:44:41.333Z,1011.04
2016-08-13T07:45:41.200Z,1011.05
2016-08-13T07:46:41.060Z,1011.03
2016-08-13T07:47:41.069Z,1011.02
2016-08-13T07:48:41.264Z,1011.03
2016-08-13T07:49:41.458Z,1011.09
2016-08-13T07:50:41.199Z,1011.04
2016-08-13T07:51:41.209Z,1011.04
2016-08-13T07:52:41.330Z,1011.03
2016-08-13T07:53:41.592Z,1011.02
2016-08-13T07:54:41.460Z,1011.02
2016-08-13T07:55:41.264Z,1011.03
2016-08-13T07:56:41.208Z,1011.06
2016-08-13T07:57:41.532Z,1011.04
2016-08-13T07:58:41.557Z,1011.01
2016-08-13T07:59:41.649Z,1010.89
2016-08-13T08:00:41.525Z,1011.15
2016-08-13T08:01:41.357Z,1010.93
2016-08-13T08:02:41.440Z,1011.15
2016-08-13T08:03:42.230Z,1011.03
2016-08-13T08:04:41.613Z,1011.02
2016-08-13T08:05:41.406Z,1011.07
2016-08-13T08:06:41.488Z,1011.07
2016-08-13T08:07:42.374Z,1011.14
2016-08-13T08:08:41.441Z,1011.03
2016-08-13T08:09:41.526Z,1011.06
2016-08-13T08:10:41.752Z,1011.11
2016-08-13T08:11:42.373Z,1011.04
2016-08-13T08:12:41.704Z,1011.04
2016-08-13T08:13:41.796Z,1011.04
2016-08-13T08:14:41.713Z,1011.07
2016-08-13T08:15:42.301Z,1011.02
2016-08-13T08:16:42.300Z,1011.01
2016-08-13T08:17:42.703Z,1011
2016-08-13T08:18:42.195Z,1011.04
2016-08-13T08:19:42.466Z,1010.96
2016-08-13T08:20:42.320Z,1011.02
2016-08-13T08:21:42.361Z,1010.97
2016-08-13T08:22:42.277Z,1010.97
2016-08-13T08:23:42.535Z,1010.93
2016-08-13T08:24:42.389Z,1010.94
2016-08-13T08:25:42.597Z,1010.98
2016-08-13T08:26:42.198Z,1010.94
2016-08-13T08:27:42.322Z,1010.96
2016-08-13T08:28:42.671Z,1011
2016-08-13T08:29:42.251Z,1010.94
2016-08-13T08:30:42.649Z,1011.03
2016-08-13T08:31:42.623Z,1011.01
2016-08-13T08:32:42.554Z,1011.03
2016-08-13T08:33:42.862Z,1010.92
2016-08-13T08:34:42.626Z,1010.94
2016-08-13T08:35:42.310Z,1010.88
2016-08-13T08:36:42.309Z,1010.88
2016-08-13T08:37:42.723Z,1010.89
2016-08-13T08:38:42.760Z,1010.95
2016-08-13T08:39:42.914Z,1010.96
2016-08-13T08:40:42.867Z,1010.97
2016-08-13T08:41:42.735Z,1010.94
2016-08-13T08:42:42.737Z,1010.91
2016-08-13T08:43:42.878Z,1010.95
2016-08-13T08:44:42.754Z,1010.99
2016-08-13T08:45:42.676Z,1011.05
2016-08-13T08:46:42.998Z,1011.03
2016-08-13T08:47:42.804Z,1011.03
2016-08-13T08:48:43.007Z,1011.02
2016-08-13T08:49:43.034Z,1011
2016-08-13T08:50:42.953Z,1011.01
2016-08-13T08:51:42.856Z,1010.98
2016-08-13T08:52:43.019Z,1010.95
2016-08-13T08:53:42.985Z,1011.05
2016-08-13T08:54:43.564Z,1010.92
2016-08-13T08:55:42.935Z,1010.96
2016-08-13T08:56:43.077Z,1011
2016-08-13T08:57:42.972Z,1010.94
2016-08-13T08:58:43.293Z,1010.89
2016-08-13T08:59:43.089Z,1010.88
2016-08-13T09:00:43.351Z,1010.92
2016-08-13T09:01:43.244Z,1010.95
2016-08-13T09:02:43.502Z,1010.96
2016-08-13T09:03:43.371Z,1010.86
2016-08-13T09:04:43.372Z,1010.89
2016-08-13T09:05:43.541Z,1010.82
2016-08-13T09:06:43.908Z,1010.82
2016-08-13T09:07:43.457Z,1010.83
2016-08-13T09:08:43.692Z,1010.86
2016-08-13T09:09:43.667Z,1010.89
2016-08-13T09:10:43.841Z,1010.9
2016-08-13T09:11:43.719Z,1010.86
2016-08-13T09:12:43.563Z,1010.87
2016-08-13T09:13:44.309Z,1010.88
2016-08-13T09:14:43.590Z,1010.93
2016-08-13T09:15:43.789Z,1010.84
2016-08-13T09:16:43.599Z,1010.9
2016-08-13T09:17:44.097Z,1010.95
2016-08-13T09:18:43.753Z,1010.97
2016-08-13T09:19:43.704Z,1010.97
2016-08-13T09:20:43.966Z,1010.89
2016-08-13T09:21:43.951Z,1010.96
2016-08-13T09:22:44.390Z,1010.9
2016-08-13T09:23:44.287Z,1010.86
2016-08-13T09:24:44.097Z,1010.89
2016-08-13T09:25:44.066Z,1010.86
2016-08-13T09:26:44.273Z,1010.95
2016-08-13T09:27:44.306Z,1010.88
2016-08-13T09:28:44.419Z,1010.81
2016-08-13T09:29:44.226Z,1010.82
2016-08-13T09:30:44.366Z,1010.8
2016-08-13T09:31:44.635Z,1010.78
2016-08-13T09:32:44.333Z,1010.82
2016-08-13T09:33:44.525Z,1010.9
2016-08-13T09:34:44.424Z,1010.82
2016-08-13T09:35:44.423Z,1010.8
2016-08-13T09:36:44.641Z,1010.91
2016-08-13T09:37:44.687Z,1010.85
2016-08-13T09:38:44.363Z,1010.89
2016-08-13T09:39:45.170Z,1010.83
2016-08-13T09:40:44.473Z,1010.9
2016-08-13T09:41:44.523Z,1010.85
2016-08-13T09:42:44.793Z,1010.89
2016-08-13T09:43:44.700Z,1010.9
2016-08-13T09:44:44.688Z,1010.85
2016-08-13T09:45:44.775Z,1010.94
2016-08-13T09:46:44.644Z,1010.87
2016-08-13T09:47:44.878Z,1010.94
2016-08-13T09:48:44.998Z,1010.85
2016-08-13T09:49:44.945Z,1010.92
2016-08-13T09:50:44.852Z,1010.96
2016-08-13T09:51:45.228Z,1011
2016-08-13T09:52:45.540Z,1010.79
2016-08-13T09:53:45.387Z,1010.83
2016-08-13T09:54:45.399Z,1010.78
2016-08-13T09:55:45.415Z,1010.76
2016-08-13T09:56:45.121Z,1010.88
2016-08-13T09:57:45.120Z,1010.99
2016-08-13T09:58:45.430Z,1010.98
2016-08-13T09:59:45.539Z,1011.06
2016-08-13T10:00:45.324Z,1010.97
2016-08-13T10:01:45.233Z,1011.03
2016-08-13T10:02:45.502Z,1011.03
2016-08-13T10:03:45.973Z,1011.04
2016-08-13T10:04:45.873Z,1011.02
2016-08-13T10:05:45.340Z,1011.04
2016-08-13T10:06:45.850Z,1011.09
2016-08-13T10:07:45.424Z,1011.09
2016-08-13T10:08:45.486Z,1011.05
2016-08-13T10:09:45.648Z,1011.08
2016-08-13T10:10:45.772Z,1011.01
2016-08-13T10:11:46.096Z,1010.87
2016-08-13T10:12:45.826Z,1011.07
2016-08-13T10:13:45.799Z,1011.19
2016-08-13T10:14:45.896Z,1011.14
2016-08-13T10:15:45.792Z,1011.04
2016-08-13T10:16:45.848Z,1011.05
2016-08-13T10:17:45.787Z,1011.14
2016-08-13T10:18:45.906Z,1011.16
2016-08-13T10:19:46.160Z,1011.17
2016-08-13T10:20:45.962Z,1011.25
2016-08-13T10:21:46.196Z,1011.11
2016-08-13T10:22:46.249Z,1011.05
2016-08-13T10:23:46.123Z,1011.08
2016-08-13T10:24:46.245Z,1011.01
2016-08-13T10:25:46.149Z,1010.81
2016-08-13T10:26:46.304Z,1010.91
2016-08-13T10:27:46.459Z,1010.98
2016-08-13T10:28:46.297Z,1011.03
2016-08-13T10:29:46.262Z,1011.02
2016-08-13T10:30:46.855Z,1010.88
2016-08-13T10:31:46.709Z,1010.92
2016-08-13T10:32:46.503Z,1010.89
2016-08-13T10:33:46.629Z,1010.91
2016-08-13T10:34:46.623Z,1010.93
2016-08-13T10:35:46.625Z,1011.04
2016-08-13T10:36:46.977Z,1011.06
2016-08-13T10:37:46.710Z,1010.99
2016-08-13T10:38:46.719Z,1010.96
2016-08-13T10:39:47.328Z,1010.89
2016-08-13T10:40:46.670Z,1010.85
2016-08-13T10:41:47.091Z,1010.85
2016-08-13T10:42:46.812Z,1010.98
2016-08-13T10:43:47.041Z,1010.96
2016-08-13T10:44:47.133Z,1011.05
2016-08-13T10:45:47.395Z,1011.13
2016-08-13T10:46:47.096Z,1010.96
2016-08-13T10:47:47.090Z,1011.07
2016-08-13T10:48:47.463Z,1010.91
2016-08-13T10:49:47.369Z,1010.82
2016-08-13T10:50:47.369Z,1010.65
2016-08-13T10:51:47.103Z,1010.6
2016-08-13T10:52:47.293Z,1010.64
2016-08-13T10:53:47.931Z,1010.69
2016-08-13T10:54:47.572Z,1010.7
2016-08-13T10:55:47.493Z,1010.67
2016-08-13T10:56:47.397Z,1010.64
2016-08-13T10:57:47.594Z,1010.8
2016-08-13T10:58:47.521Z,1010.75
2016-08-13T10:59:47.590Z,1010.67
2016-08-13T11:00:47.634Z,1010.77
2016-08-13T11:01:47.635Z,1010.71
2016-08-13T11:02:47.734Z,1010.61
2016-08-13T11:03:47.677Z,1010.55
2016-08-13T11:04:47.613Z,1010.62
2016-08-13T11:05:47.685Z,1010.5
2016-08-13T11:06:48.074Z,1010.53
2016-08-13T11:07:47.824Z,1010.51
2016-08-13T11:08:48.126Z,1010.46
2016-08-13T11:09:47.826Z,1010.44
2016-08-13T11:10:47.853Z,1010.36
2016-08-13T11:11:47.864Z,1010.39
2016-08-13T11:12:48.152Z,1010.34
2016-08-13T11:13:48.215Z,1010.31
2016-08-13T11:14:48.153Z,1010.28
2016-08-13T11:15:48.253Z,1010.3
2016-08-13T11:16:48.322Z,1010.37
2016-08-13T11:17:48.495Z,1010.16
2016-08-13T11:18:48.353Z,1009.93
2016-08-13T11:19:48.391Z,1010.05
2016-08-13T11:20:48.612Z,1010.22
2016-08-13T11:21:48.283Z,1010.27
2016-08-13T11:22:48.500Z,1010.24
2016-08-13T11:23:48.541Z,1010.2
2016-08-13T11:24:48.263Z,1010.26
2016-08-13T11:25:48.714Z,1010.31
2016-08-13T11:26:48.565Z,1010.36
2016-08-13T11:27:48.578Z,1010.42
2016-08-13T11:28:48.783Z,1010.46
2016-08-13T11:29:48.887Z,1010.33
2016-08-13T11:30:48.481Z,1010.21
2016-08-13T11:31:48.654Z,1010.51
2016-08-13T11:32:48.531Z,1010.48
2016-08-13T11:33:48.664Z,1010.49
2016-08-13T11:34:48.835Z,1010.47
2016-08-13T11:35:49.024Z,1010.47
2016-08-13T11:36:49.291Z,1010.45
2016-08-13T11:37:49.018Z,1010.39
2016-08-13T11:38:49.083Z,1010.45
2016-08-13T11:39:49.290Z,1010.5
2016-08-13T11:40:49.271Z,1010.48
2016-08-13T11:41:49.100Z,1010.51
2016-08-13T11:42:48.965Z,1010.56
2016-08-13T11:43:49.439Z,1010.5
2016-08-13T11:44:49.055Z,1010.54
2016-08-13T11:45:49.072Z,1010.54
2016-08-13T11:46:49.406Z,1010.57
2016-08-13T11:47:49.329Z,1010.59
2016-08-13T11:48:49.437Z,1010.6
2016-08-13T11:49:49.424Z,1010.61
2016-08-13T11:50:49.458Z,1010.71
2016-08-13T11:51:49.462Z,1010.61
2016-08-13T11:52:49.625Z,1010.66
2016-08-13T11:53:49.495Z,1010.7
2016-08-13T11:54:49.486Z,1010.69
2016-08-13T11:55:50.143Z,1010.73
2016-08-13T11:56:49.948Z,1010.75
2016-08-13T11:57:49.721Z,1010.6
2016-08-13T11:58:49.858Z,1010.31
2016-08-13T11:59:49.930Z,1010.54
2016-08-13T12:00:49.948Z,1010.63
2016-08-13T12:01:49.814Z,1010.72
2016-08-13T12:02:49.917Z,1010.68
2016-08-13T12:03:50.271Z,1010.73
2016-08-13T12:04:49.861Z,1010.66
2016-08-13T12:05:50.182Z,1010.51
2016-08-13T12:07:49.858Z,1010.7
2016-08-13T12:08:49.901Z,1010.88
2016-08-13T12:09:50.008Z,1010.95
2016-08-13T12:10:50.430Z,1011.02